createdAt,value
2023-02-11T00:00:04.915Z,27.31
2023-02-11T00:01:06.737Z,24.86
2023-02-11T00:02:08.589Z,28.49
2023-02-11T00:03:10.809Z,30.08
2023-02-11T00:04:12.574Z,28.95
2023-02-11T00:05:14.400Z,24.51
2023-02-11T00:06:16.479Z,25.40
2023-02-11T00:07:18.279Z,28.16
2023-02-11T00:08:20.112Z,25.11
2023-02-11T00:09:21.914Z,28.15
2023-02-11T00:10:23.710Z,27.77
2023-02-11T00:11:25.533Z,29.63
2023-02-11T00:12:27.325Z,29.15
2023-02-11T00:13:29.548Z,28.27
2023-02-11T00:14:32.370Z,26.85
2023-02-11T00:15:34.203Z,25.91
2023-02-11T00:16:36.152Z,27.05
2023-02-11T00:17:38.577Z,28.77
2023-02-11T00:18:40.464Z,25.54
2023-02-11T00:19:42.243Z,28.99
2023-02-11T00:20:44.069Z,25.27
2023-02-11T00:21:45.849Z,27.46
2023-02-11T00:22:47.646Z,28.36
2023-02-11T00:23:49.481Z,27.37
2023-02-11T00:24:51.302Z,27.13
2023-02-11T00:25:53.280Z,28.23
2023-02-11T00:26:55.204Z,26.61
2023-02-11T00:27:57.031Z,27.21
2023-02-11T00:28:58.859Z,29.73
2023-02-11T00:30:00.698Z,31.46
2023-02-11T00:31:03.162Z,31.56
2023-02-11T00:32:05.053Z,34.69
2023-02-11T00:33:06.792Z,25.88
2023-02-11T00:34:08.648Z,28.71
2023-02-11T00:35:10.462Z,24.97
2023-02-11T00:36:13.286Z,29.13
2023-02-11T00:37:15.064Z,29.42
2023-02-11T00:38:16.862Z,27.15
2023-02-11T00:39:18.706Z,26.19
2023-02-11T00:40:20.514Z,30.11
2023-02-11T00:41:22.306Z,26.94
2023-02-11T00:42:24.112Z,22.55
2023-02-11T00:43:25.901Z,25.50
2023-02-11T00:44:27.750Z,24.85
2023-02-11T00:45:29.562Z,23.85
2023-02-11T00:46:31.407Z,23.36
2023-02-11T00:47:33.182Z,23.45
2023-02-11T00:48:34.948Z,28.41
2023-02-11T00:49:36.805Z,24.33
2023-02-11T00:50:38.609Z,24.14
2023-02-11T00:51:40.393Z,23.47
2023-02-11T00:52:42.215Z,27.84
2023-02-11T00:53:44.035Z,24.51
2023-02-11T00:54:45.869Z,25.53
2023-02-11T00:55:47.901Z,24.21
2023-02-11T00:56:49.951Z,25.78
2023-02-11T00:57:51.761Z,23.29
2023-02-11T00:58:53.562Z,25.99
2023-02-11T00:59:55.403Z,25.97
2023-02-11T01:00:57.223Z,23.56
2023-02-11T01:01:59.028Z,25.28
2023-02-11T01:03:00.839Z,28.63
2023-02-11T01:04:02.655Z,26.75
2023-02-11T01:05:04.535Z,27.95
2023-02-11T01:06:06.409Z,24.82
2023-02-11T01:07:08.216Z,24.11
2023-02-11T01:08:10.008Z,24.15
2023-02-11T01:09:11.810Z,23.96
2023-02-11T01:10:13.667Z,22.43
2023-02-11T01:11:15.458Z,25.95
2023-02-11T01:12:17.256Z,25.30
2023-02-11T01:13:19.047Z,26.88
2023-02-11T01:14:20.858Z,26.94
2023-02-11T01:15:22.724Z,26.22
2023-02-11T01:16:24.837Z,26.38
2023-02-11T01:17:26.623Z,28.30
2023-02-11T01:18:28.438Z,25.27
2023-02-11T01:19:30.243Z,26.26
2023-02-11T01:20:32.201Z,26.89
2023-02-11T01:21:34.025Z,25.67
2023-02-11T01:22:35.829Z,27.47
2023-02-11T01:23:37.661Z,27.70
2023-02-11T01:24:39.449Z,31.01
2023-02-11T01:25:41.278Z,30.17
2023-02-11T01:26:43.174Z,32.44
2023-02-11T01:27:44.975Z,32.52
2023-02-11T01:28:46.784Z,29.32
2023-02-11T01:29:48.576Z,27.93
2023-02-11T01:30:50.453Z,27.97
2023-02-11T01:31:52.261Z,26.82
2023-02-11T01:32:54.042Z,29.16
2023-02-11T01:33:55.859Z,26.28
2023-02-11T01:34:57.645Z,26.14
2023-02-11T01:35:59.483Z,25.95
2023-02-11T01:37:01.290Z,27.14
2023-02-11T01:38:03.081Z,25.00
2023-02-11T01:39:04.895Z,23.19
2023-02-11T01:40:06.996Z,24.14
2023-02-11T01:41:08.828Z,24.43
2023-02-11T01:42:10.638Z,24.49
2023-02-11T01:43:12.439Z,26.77
2023-02-11T01:44:14.230Z,25.11
2023-02-11T01:45:16.044Z,24.71
2023-02-11T01:46:18.387Z,24.79
2023-02-11T01:47:20.205Z,22.66
2023-02-11T01:48:21.998Z,25.19
2023-02-11T01:49:23.835Z,22.90
2023-02-11T01:50:25.618Z,22.49
2023-02-11T01:51:27.487Z,26.37
2023-02-11T01:52:29.276Z,21.29
2023-02-11T01:53:31.090Z,21.17
2023-02-11T01:54:32.896Z,23.45
2023-02-11T01:55:34.698Z,23.14
2023-02-11T01:56:36.524Z,24.41
2023-02-11T01:57:38.319Z,22.37
2023-02-11T01:58:40.113Z,20.65
2023-02-11T01:59:41.923Z,23.58
2023-02-11T02:00:43.728Z,20.91
2023-02-11T02:01:45.662Z,20.41
2023-02-11T02:02:47.459Z,23.25
2023-02-11T02:03:49.310Z,21.95
2023-02-11T02:04:51.068Z,20.99
2023-02-11T02:05:53.099Z,22.94
2023-02-11T02:06:55.074Z,24.31
2023-02-11T02:07:56.880Z,20.63
2023-02-11T02:08:58.675Z,20.33
2023-02-11T02:10:00.476Z,23.60
2023-02-11T02:11:02.270Z,20.96
2023-02-11T02:12:04.115Z,25.11
2023-02-11T02:13:05.918Z,23.01
2023-02-11T02:14:07.707Z,26.18
2023-02-11T02:15:14.986Z,23.28
2023-02-11T02:16:16.960Z,23.30
2023-02-11T02:17:18.852Z,26.77
2023-02-11T02:18:20.663Z,25.17
2023-02-11T02:19:22.456Z,23.96
2023-02-11T02:20:24.273Z,21.06
2023-02-11T02:21:26.060Z,23.66
2023-02-11T02:22:27.900Z,23.25
2023-02-11T02:23:29.699Z,23.37
2023-02-11T02:24:31.507Z,25.36
2023-02-11T02:25:33.291Z,23.57
2023-02-11T02:26:35.091Z,24.89
2023-02-11T02:27:36.914Z,24.83
2023-02-11T02:28:38.718Z,23.81
2023-02-11T02:29:40.518Z,26.89
2023-02-11T02:30:42.356Z,26.31
2023-02-11T02:31:44.161Z,29.39
2023-02-11T02:32:45.969Z,28.73
2023-02-11T02:33:47.782Z,27.43
2023-02-11T02:34:49.580Z,31.51
2023-02-11T02:35:51.665Z,27.93
2023-02-11T02:36:53.491Z,26.69
2023-02-11T02:37:55.334Z,25.29
2023-02-11T02:38:57.138Z,25.70
2023-02-11T02:39:58.938Z,25.14
2023-02-11T02:41:00.740Z,23.19
2023-02-11T02:42:02.538Z,24.54
2023-02-11T02:43:04.371Z,23.00
2023-02-11T02:44:06.180Z,23.87
2023-02-11T02:45:07.996Z,23.79
2023-02-11T02:46:10.104Z,24.48
2023-02-11T02:47:11.913Z,22.25
2023-02-11T02:48:13.760Z,23.31
2023-02-11T02:49:15.564Z,23.62
2023-02-11T02:50:17.478Z,22.26
2023-02-11T02:51:19.272Z,26.17
2023-02-11T02:52:21.092Z,25.56
2023-02-11T02:53:22.955Z,26.41
2023-02-11T02:54:24.769Z,25.81
2023-02-11T02:55:26.573Z,24.22
2023-02-11T02:56:28.484Z,25.51
2023-02-11T02:57:30.291Z,25.27
2023-02-11T02:58:32.131Z,27.46
2023-02-11T02:59:33.935Z,23.98
2023-02-11T03:00:36.101Z,24.74
2023-02-11T03:01:37.958Z,27.07
2023-02-11T03:02:39.770Z,23.91
2023-02-11T03:03:41.655Z,24.17
2023-02-11T03:04:43.418Z,21.09
2023-02-11T03:05:47.545Z,22.50
2023-02-11T03:06:49.440Z,23.05
2023-02-11T03:07:51.253Z,22.17
2023-02-11T03:08:53.097Z,25.66
2023-02-11T03:09:54.899Z,22.56
2023-02-11T03:10:57.020Z,24.01
2023-02-11T03:11:58.846Z,32.07
2023-02-11T03:13:00.624Z,29.03
2023-02-11T03:14:02.468Z,22.81
2023-02-11T03:15:05.311Z,24.24
2023-02-11T03:16:07.235Z,23.09
2023-02-11T03:17:09.017Z,22.64
2023-02-11T03:18:10.829Z,21.79
2023-02-11T03:19:12.667Z,23.53
2023-02-11T03:20:14.672Z,25.83
2023-02-11T03:21:16.474Z,25.41
2023-02-11T03:22:18.838Z,27.71
2023-02-11T03:23:20.656Z,33.46
2023-02-11T03:24:22.610Z,27.12
2023-02-11T03:25:24.992Z,28.55
2023-02-11T03:26:26.801Z,29.56
2023-02-11T03:27:28.613Z,25.85
2023-02-11T03:28:30.489Z,28.59
2023-02-11T03:29:32.378Z,24.56
2023-02-11T03:30:34.270Z,24.73
2023-02-11T03:31:36.138Z,25.30
2023-02-11T03:32:37.997Z,23.54
2023-02-11T03:33:39.896Z,24.28
2023-02-11T03:34:41.728Z,23.05
2023-02-11T03:35:43.551Z,24.35
2023-02-11T03:36:45.357Z,26.53
2023-02-11T03:37:47.154Z,28.32
2023-02-11T03:38:48.963Z,25.64
2023-02-11T03:39:50.814Z,24.79
2023-02-11T03:40:52.967Z,24.70
2023-02-11T03:41:55.374Z,22.68
2023-02-11T03:42:57.183Z,25.57
2023-02-11T03:43:58.969Z,25.63
2023-02-11T03:45:00.914Z,24.01
2023-02-11T03:46:02.743Z,22.06
2023-02-11T03:47:04.528Z,24.81
2023-02-11T03:48:06.398Z,25.87
2023-02-11T03:49:08.764Z,23.41
2023-02-11T03:50:11.327Z,25.43
2023-02-11T03:51:13.665Z,24.30
2023-02-11T03:52:15.488Z,24.23
2023-02-11T03:53:17.278Z,23.31
2023-02-11T03:54:19.090Z,24.27
2023-02-11T03:55:20.928Z,25.31
2023-02-11T03:56:22.790Z,23.29
2023-02-11T03:57:24.603Z,24.17
2023-02-11T03:58:26.387Z,24.41
2023-02-11T03:59:28.195Z,24.11
2023-02-11T04:00:30.044Z,24.31
2023-02-11T04:01:31.892Z,24.21
2023-02-11T04:02:33.753Z,24.18
2023-02-11T04:03:35.627Z,22.67
2023-02-11T04:04:37.470Z,22.87
2023-02-11T04:05:39.332Z,22.51
2023-02-11T04:06:41.222Z,27.71
2023-02-11T04:07:43.578Z,25.69
2023-02-11T04:08:45.389Z,25.52
2023-02-11T04:09:47.186Z,25.09
2023-02-11T04:10:50.458Z,25.17
2023-02-11T04:11:52.353Z,23.52
2023-02-11T04:12:54.378Z,23.92
2023-02-11T04:13:56.334Z,22.93
2023-02-11T04:14:58.114Z,20.63
2023-02-11T04:15:59.980Z,23.77
2023-02-11T04:17:01.768Z,24.13
2023-02-11T04:18:03.586Z,26.98
2023-02-11T04:19:05.384Z,26.61
2023-02-11T04:20:07.510Z,22.01
2023-02-11T04:21:09.393Z,27.12
2023-02-11T04:22:11.168Z,24.12
2023-02-11T04:23:13.569Z,21.95
2023-02-11T04:24:15.370Z,26.67
2023-02-11T04:25:17.187Z,25.65
2023-02-11T04:26:20.242Z,26.92
2023-02-11T04:27:22.070Z,26.01
2023-02-11T04:28:23.908Z,26.00
2023-02-11T04:29:25.667Z,26.22
2023-02-11T04:30:27.488Z,22.38
2023-02-11T04:31:29.405Z,25.47
2023-02-11T04:32:31.244Z,24.16
2023-02-11T04:33:33.045Z,24.62
2023-02-11T04:34:34.844Z,24.54
2023-02-11T04:35:36.659Z,25.87
2023-02-11T04:36:38.624Z,27.93
2023-02-11T04:37:40.433Z,24.39
2023-02-11T04:38:42.228Z,26.61
2023-02-11T04:39:44.051Z,28.41
2023-02-11T04:40:45.961Z,23.56
2023-02-11T04:41:47.789Z,23.81
2023-02-11T04:42:49.586Z,27.10
2023-02-11T04:43:51.393Z,24.99
2023-02-11T04:44:53.194Z,22.41
2023-02-11T04:45:55.033Z,26.54
2023-02-11T04:46:56.929Z,22.93
2023-02-11T04:47:58.727Z,24.13
2023-02-11T04:49:00.542Z,27.89
2023-02-11T04:50:02.491Z,26.57
2023-02-11T04:51:04.307Z,24.89
2023-02-11T04:52:06.158Z,25.03
2023-02-11T04:53:07.959Z,23.79
2023-02-11T04:54:10.356Z,24.82
2023-02-11T04:55:12.169Z,25.73
2023-02-11T04:56:14.069Z,26.84
2023-02-11T04:57:15.910Z,24.43
2023-02-11T04:58:17.732Z,23.02
2023-02-11T04:59:19.549Z,23.69
2023-02-11T05:00:21.510Z,24.55
2023-02-11T05:01:23.614Z,22.31
2023-02-11T05:02:25.442Z,23.45
2023-02-11T05:03:27.242Z,20.98
2023-02-11T05:04:29.095Z,22.47
2023-02-11T05:05:30.951Z,20.91
2023-02-11T05:06:32.738Z,22.85
2023-02-11T05:07:34.608Z,23.22
2023-02-11T05:08:36.433Z,24.24
2023-02-11T05:09:38.236Z,24.13
2023-02-11T05:10:40.153Z,25.64
2023-02-11T05:11:41.958Z,24.25
2023-02-11T05:12:43.771Z,26.78
2023-02-11T05:13:45.685Z,26.15
2023-02-11T05:14:47.484Z,26.91
2023-02-11T05:15:49.616Z,24.72
2023-02-11T05:16:51.968Z,26.49
2023-02-11T05:17:53.860Z,23.78
2023-02-11T05:18:55.667Z,29.13
2023-02-11T05:19:57.453Z,27.86
2023-02-11T05:20:59.361Z,45.27
2023-02-11T05:22:03.451Z,59.72
2023-02-11T05:23:04.811Z,68.99
2023-02-11T05:24:06.611Z,72.18
2023-02-11T05:25:08.419Z,68.23
2023-02-11T05:26:10.328Z,68.29
2023-02-11T05:27:12.122Z,75.79
2023-02-11T05:28:14.025Z,77.37
2023-02-11T05:29:15.851Z,61.54
2023-02-11T05:30:17.954Z,68.47
2023-02-11T05:31:19.751Z,59.79
2023-02-11T05:32:21.559Z,57.63
2023-02-11T05:33:23.409Z,50.34
2023-02-11T05:34:25.304Z,47.25
2023-02-11T05:35:27.096Z,50.07
2023-02-11T05:36:29.809Z,50.10
2023-02-11T05:37:32.447Z,47.14
2023-02-11T05:38:34.282Z,39.18
2023-02-11T05:39:36.082Z,46.78
2023-02-11T05:40:37.976Z,47.14
2023-02-11T05:41:39.782Z,44.57
2023-02-11T05:42:41.567Z,39.91
2023-02-11T05:43:43.402Z,41.53
2023-02-11T05:44:45.237Z,46.29
2023-02-11T05:45:47.038Z,45.82
2023-02-11T05:46:48.931Z,44.51
2023-02-11T05:47:50.734Z,44.63
2023-02-11T05:48:52.587Z,42.74
2023-02-11T05:49:54.394Z,41.46
2023-02-11T05:50:56.291Z,41.34
2023-02-11T05:51:58.085Z,43.95
2023-02-11T05:52:59.887Z,39.11
2023-02-11T05:54:01.845Z,46.46
2023-02-11T05:55:03.668Z,40.57
2023-02-11T05:56:05.952Z,44.85
2023-02-11T05:57:07.743Z,45.76
2023-02-11T05:58:09.560Z,45.64
2023-02-11T05:59:11.482Z,45.22
2023-02-11T06:00:13.610Z,54.57
2023-02-11T06:01:15.404Z,51.13
2023-02-11T06:02:17.229Z,59.15
2023-02-11T06:03:19.027Z,49.65
2023-02-11T06:04:20.859Z,53.18
2023-02-11T06:05:22.659Z,54.03
2023-02-11T06:06:24.446Z,41.97
2023-02-11T06:07:26.250Z,42.55
2023-02-11T06:08:28.061Z,41.99
2023-02-11T06:09:29.888Z,33.06
2023-02-11T06:10:31.796Z,33.35
2023-02-11T06:11:33.579Z,29.10
2023-02-11T06:12:35.388Z,28.03
2023-02-11T06:13:37.193Z,27.20
2023-02-11T06:14:39.015Z,27.98
2023-02-11T06:15:40.863Z,28.05
2023-02-11T06:16:42.613Z,24.68
2023-02-11T06:17:44.439Z,26.87
2023-02-11T06:18:46.247Z,27.45
2023-02-11T06:19:48.081Z,24.90
2023-02-11T06:20:49.876Z,25.85
2023-02-11T06:21:51.670Z,24.68
2023-02-11T06:22:53.538Z,24.85
2023-02-11T06:23:55.335Z,26.30
2023-02-11T06:25:01.850Z,26.08
2023-02-11T06:26:00.793Z,30.57
2023-02-11T06:27:02.594Z,30.79
2023-02-11T06:28:04.476Z,33.56
2023-02-11T06:29:06.315Z,33.02
2023-02-11T06:30:08.421Z,30.07
2023-02-11T06:31:10.742Z,37.58
2023-02-11T06:32:29.897Z,37.13
2023-02-11T06:33:16.205Z,32.74
2023-02-11T06:34:18.103Z,28.09
2023-02-11T06:35:19.970Z,33.91
2023-02-11T06:36:21.853Z,29.25
2023-02-11T06:37:23.662Z,30.77
2023-02-11T06:38:25.475Z,26.39
2023-02-11T06:39:27.285Z,24.72
2023-02-11T06:40:29.233Z,23.02
2023-02-11T06:41:31.015Z,23.56
2023-02-11T06:42:32.833Z,23.78
2023-02-11T06:43:36.909Z,21.19
2023-02-11T06:44:38.736Z,31.22
2023-02-11T06:45:40.562Z,23.48
2023-02-11T06:46:42.412Z,22.79
2023-02-11T06:47:44.193Z,24.71
2023-02-11T06:48:45.988Z,21.99
2023-02-11T06:49:47.784Z,21.90
2023-02-11T06:50:49.733Z,23.53
2023-02-11T06:51:51.534Z,21.17
2023-02-11T06:52:53.329Z,22.50
2023-02-11T06:53:55.131Z,22.49
2023-02-11T06:54:56.925Z,21.94
2023-02-11T06:55:58.776Z,21.09
2023-02-11T06:57:00.731Z,22.69
2023-02-11T06:58:02.523Z,23.67
2023-02-11T06:59:04.337Z,23.03
2023-02-11T07:00:06.266Z,22.85
2023-02-11T07:01:08.085Z,22.66
2023-02-11T07:02:09.918Z,20.63
2023-02-11T07:03:11.756Z,23.94
2023-02-11T07:04:13.656Z,22.99
2023-02-11T07:05:15.487Z,22.79
2023-02-11T07:06:17.532Z,21.43
2023-02-11T07:07:19.333Z,21.96
2023-02-11T07:08:21.133Z,23.32
2023-02-11T07:09:22.949Z,21.95
2023-02-11T07:10:24.770Z,22.38
2023-02-11T07:11:26.598Z,22.75
2023-02-11T07:12:28.405Z,26.95
2023-02-11T07:13:30.210Z,24.08
2023-02-11T07:14:32.032Z,21.62
2023-02-11T07:15:33.863Z,23.98
2023-02-11T07:16:35.833Z,58.55
2023-02-11T07:17:37.643Z,80.09
2023-02-11T07:18:39.419Z,50.68
2023-02-11T07:19:41.231Z,40.44
2023-02-11T07:20:43.050Z,28.08
2023-02-11T07:21:44.917Z,21.13
2023-02-11T07:22:46.818Z,22.25
2023-02-11T07:23:48.622Z,23.31
2023-02-11T07:24:50.420Z,24.33
2023-02-11T07:25:52.461Z,35.64
2023-02-11T07:26:54.614Z,42.59
2023-02-11T07:27:56.424Z,37.30
2023-02-11T07:28:58.879Z,25.61
2023-02-11T07:30:00.692Z,24.21
2023-02-11T07:31:02.599Z,23.26
2023-02-11T07:32:04.525Z,25.62
2023-02-11T07:33:06.446Z,30.67
2023-02-11T07:34:08.265Z,45.02
2023-02-11T07:35:10.122Z,62.95
2023-02-11T07:36:12.360Z,48.71
2023-02-11T07:37:14.224Z,38.73
2023-02-11T07:38:16.023Z,29.21
2023-02-11T07:39:17.851Z,31.03
2023-02-11T07:40:19.645Z,32.26
2023-02-11T07:41:21.814Z,36.33
2023-02-11T07:42:23.698Z,49.34
2023-02-11T07:43:25.529Z,44.65
2023-02-11T07:44:27.351Z,36.44
2023-02-11T07:45:29.149Z,27.39
2023-02-11T07:46:31.212Z,26.55
2023-02-11T07:47:33.219Z,28.87
2023-02-11T07:48:35.026Z,26.45
2023-02-11T07:49:36.935Z,26.71
2023-02-11T07:50:38.704Z,27.21
2023-02-11T07:51:40.500Z,29.74
2023-02-11T07:52:42.349Z,28.73
2023-02-11T07:53:44.776Z,24.34
2023-02-11T07:54:46.657Z,25.49
2023-02-11T07:55:48.668Z,27.20
2023-02-11T07:56:51.315Z,25.54
2023-02-11T07:57:53.186Z,25.99
2023-02-11T07:58:55.001Z,25.91
2023-02-11T07:59:56.819Z,28.26
2023-02-11T08:00:59.386Z,34.24
2023-02-11T08:02:01.234Z,31.29
2023-02-11T08:03:04.909Z,27.80
2023-02-11T08:04:06.755Z,30.04
2023-02-11T08:05:08.670Z,32.43
2023-02-11T08:06:10.986Z,25.65
2023-02-11T08:07:12.780Z,31.31
2023-02-11T08:08:14.711Z,31.67
2023-02-11T08:09:16.550Z,31.09
2023-02-11T08:10:18.592Z,25.51
2023-02-11T08:11:20.439Z,26.37
2023-02-11T08:12:22.286Z,27.24
2023-02-11T08:13:24.130Z,28.45
2023-02-11T08:14:25.933Z,27.65
2023-02-11T08:15:27.727Z,33.25
2023-02-11T08:16:29.588Z,30.54
2023-02-11T08:17:31.933Z,29.29
2023-02-11T08:18:33.983Z,26.05
2023-02-11T08:19:35.782Z,25.28
2023-02-11T08:20:37.684Z,24.54
2023-02-11T08:21:39.480Z,24.76
2023-02-11T08:22:41.300Z,24.19
2023-02-11T08:23:43.147Z,28.64
2023-02-11T08:24:44.964Z,23.56
2023-02-11T08:25:46.782Z,27.07
2023-02-11T08:26:49.295Z,23.34
2023-02-11T08:27:51.095Z,25.71
2023-02-11T08:28:52.948Z,23.92
2023-02-11T08:29:54.751Z,24.92
2023-02-11T08:30:56.668Z,23.37
2023-02-11T08:31:58.539Z,24.50
2023-02-11T08:33:00.377Z,29.79
2023-02-11T08:34:02.855Z,30.99
2023-02-11T08:35:04.680Z,30.81
2023-02-11T08:36:06.839Z,25.81
2023-02-11T08:37:08.647Z,29.29
2023-02-11T08:38:10.457Z,34.38
2023-02-11T08:39:19.223Z,31.80
2023-02-11T08:40:17.080Z,30.24
2023-02-11T08:41:18.885Z,29.29
2023-02-11T08:42:20.688Z,24.41
2023-02-11T08:43:22.508Z,24.60
2023-02-11T08:44:24.345Z,25.86
2023-02-11T08:45:26.130Z,24.03
2023-02-11T08:46:28.069Z,24.63
2023-02-11T08:47:29.851Z,29.55
2023-02-11T08:48:31.651Z,24.56
2023-02-11T08:49:33.501Z,29.59
2023-02-11T08:50:35.398Z,35.26
2023-02-11T08:51:38.327Z,32.75
2023-02-11T08:52:40.156Z,34.83
2023-02-11T08:53:41.956Z,31.23
2023-02-11T08:54:43.818Z,40.70
2023-02-11T08:55:45.640Z,46.01
2023-02-11T08:56:47.446Z,44.81
2023-02-11T08:57:49.251Z,39.21
2023-02-11T08:58:51.052Z,39.04
2023-02-11T08:59:52.894Z,31.10
2023-02-11T09:00:54.875Z,26.11
2023-02-11T09:01:56.656Z,24.64
2023-02-11T09:02:58.500Z,25.01
2023-02-11T09:04:00.304Z,27.07
2023-02-11T09:05:02.748Z,37.27
2023-02-11T09:06:04.669Z,41.21
2023-02-11T09:07:06.483Z,42.76
2023-02-11T09:08:08.274Z,31.01
2023-02-11T09:09:10.082Z,26.25
2023-02-11T09:10:12.446Z,26.51
2023-02-11T09:11:14.274Z,27.35
2023-02-11T09:12:16.067Z,29.85
2023-02-11T09:13:17.883Z,27.38
2023-02-11T09:14:19.705Z,27.01
2023-02-11T09:15:21.537Z,24.94
2023-02-11T09:16:23.688Z,27.63
2023-02-11T09:17:25.454Z,25.58
2023-02-11T09:18:27.248Z,27.99
2023-02-11T09:19:29.054Z,22.86
2023-02-11T09:20:30.992Z,27.97
2023-02-11T09:21:32.798Z,26.32
2023-02-11T09:22:34.614Z,25.98
2023-02-11T09:23:36.411Z,27.37
2023-02-11T09:24:38.200Z,25.05
2023-02-11T09:25:40.040Z,30.39
2023-02-11T09:26:41.954Z,28.33
2023-02-11T09:27:43.846Z,26.75
2023-02-11T09:28:45.650Z,26.98
2023-02-11T09:29:47.454Z,25.33
2023-02-11T09:30:49.905Z,24.79
2023-02-11T09:31:52.093Z,24.19
2023-02-11T09:32:54.034Z,26.40
2023-02-11T09:33:55.835Z,26.64
2023-02-11T09:34:57.670Z,26.02
2023-02-11T09:35:59.537Z,23.94
2023-02-11T09:37:01.629Z,24.76
2023-02-11T09:38:03.430Z,26.06
2023-02-11T09:39:05.236Z,23.59
2023-02-11T09:40:07.342Z,24.87
2023-02-11T09:41:09.180Z,27.17
2023-02-11T09:42:10.997Z,26.68
2023-02-11T09:43:12.784Z,30.44
2023-02-11T09:44:14.586Z,28.05
2023-02-11T09:45:16.382Z,26.65
2023-02-11T09:46:19.383Z,27.76
2023-02-11T09:47:21.245Z,27.19
2023-02-11T09:48:23.033Z,28.79
2023-02-11T09:49:24.834Z,26.65
2023-02-11T09:50:26.637Z,26.67
2023-02-11T09:51:28.496Z,27.46
2023-02-11T09:52:30.294Z,31.19
2023-02-11T09:53:32.096Z,31.16
2023-02-11T09:54:33.910Z,24.49
2023-02-11T09:55:35.716Z,24.52
2023-02-11T09:56:37.964Z,25.63
2023-02-11T09:57:39.764Z,23.59
2023-02-11T09:58:41.555Z,30.17
2023-02-11T09:59:43.353Z,30.47
2023-02-11T10:00:45.149Z,24.90
2023-02-11T10:01:47.078Z,26.61
2023-02-11T10:02:48.928Z,26.03
2023-02-11T10:03:50.741Z,28.05
2023-02-11T10:04:52.523Z,22.21
2023-02-11T10:05:54.324Z,26.63
2023-02-11T10:06:56.498Z,28.73
2023-02-11T10:07:58.293Z,27.67
2023-02-11T10:09:00.129Z,30.60
2023-02-11T10:10:01.919Z,28.99
2023-02-11T10:11:03.722Z,25.99
2023-02-11T10:12:05.551Z,25.51
2023-02-11T10:13:07.370Z,23.92
2023-02-11T10:14:09.141Z,25.37
2023-02-11T10:15:10.950Z,24.36
2023-02-11T10:16:13.139Z,23.67
2023-02-11T10:17:15.024Z,26.09
2023-02-11T10:18:16.827Z,24.99
2023-02-11T10:19:18.618Z,29.04
2023-02-11T10:20:20.431Z,27.42
2023-02-11T10:21:22.212Z,32.74
2023-02-11T10:22:24.060Z,26.94
2023-02-11T10:23:25.880Z,28.55
2023-02-11T10:24:27.685Z,30.37
2023-02-11T10:25:29.485Z,28.63
2023-02-11T10:26:31.296Z,25.96
2023-02-11T10:27:33.155Z,28.15
2023-02-11T10:28:35.033Z,27.64
2023-02-11T10:29:36.841Z,26.77
2023-02-11T10:30:38.957Z,31.29
2023-02-11T10:31:40.802Z,28.81
2023-02-11T10:32:42.677Z,25.46
2023-02-11T10:33:44.452Z,28.29
2023-02-11T10:34:46.256Z,29.82
2023-02-11T10:35:48.058Z,26.24
2023-02-11T10:36:50.163Z,27.68
2023-02-11T10:37:52.030Z,31.86
2023-02-11T10:38:53.862Z,29.53
2023-02-11T10:39:55.671Z,28.08
2023-02-11T10:40:57.776Z,25.62
2023-02-11T10:41:59.592Z,28.43
2023-02-11T10:43:01.450Z,30.18
2023-02-11T10:44:03.246Z,27.23
2023-02-11T10:45:05.083Z,25.36
2023-02-11T10:46:07.440Z,25.97
2023-02-11T10:47:09.302Z,29.78
2023-02-11T10:48:11.142Z,26.39
2023-02-11T10:49:12.959Z,27.49
2023-02-11T10:50:15.467Z,24.19
2023-02-11T10:51:17.273Z,28.20
2023-02-11T10:52:19.059Z,25.07
2023-02-11T10:53:20.930Z,28.23
2023-02-11T10:54:22.894Z,32.03
2023-02-11T10:55:24.707Z,28.25
2023-02-11T10:56:26.612Z,27.36
2023-02-11T10:57:28.420Z,25.51
2023-02-11T10:58:30.268Z,26.90
2023-02-11T10:59:32.065Z,28.32
2023-02-11T11:00:34.229Z,28.10
2023-02-11T11:01:36.712Z,30.36
2023-02-11T11:02:38.503Z,29.43
2023-02-11T11:03:40.339Z,27.10
2023-02-11T11:04:42.160Z,26.13
2023-02-11T11:05:43.927Z,28.01
2023-02-11T11:06:45.867Z,29.97
2023-02-11T11:07:47.680Z,31.59
2023-02-11T11:08:49.526Z,29.08
2023-02-11T11:09:51.351Z,28.80
2023-02-11T11:10:53.453Z,29.29
2023-02-11T11:11:55.341Z,29.21
2023-02-11T11:12:57.138Z,29.27
2023-02-11T11:13:58.999Z,30.09
2023-02-11T11:15:00.884Z,30.79
2023-02-11T11:16:02.758Z,28.41
2023-02-11T11:17:04.477Z,27.40
2023-02-11T11:18:20.520Z,25.79
2023-02-11T11:19:09.961Z,26.00
2023-02-11T11:20:12.834Z,30.20
2023-02-11T11:21:14.641Z,28.83
2023-02-11T11:22:16.424Z,31.54
2023-02-11T11:23:18.244Z,32.55
2023-02-11T11:24:20.113Z,31.61
2023-02-11T11:25:21.927Z,33.50
2023-02-11T11:26:23.921Z,29.69
2023-02-11T11:27:25.708Z,30.89
2023-02-11T11:28:27.545Z,32.22
2023-02-11T11:29:29.355Z,36.55
2023-02-11T11:30:31.312Z,34.41
2023-02-11T11:31:33.276Z,31.32
2023-02-11T11:32:35.067Z,31.61
2023-02-11T11:33:37.290Z,31.16
2023-02-11T11:34:39.137Z,29.87
2023-02-11T11:35:40.953Z,33.41
2023-02-11T11:36:43.051Z,33.86
2023-02-11T11:37:45.401Z,32.94
2023-02-11T11:38:47.212Z,33.47
2023-02-11T11:39:49.059Z,35.25
2023-02-11T11:40:51.189Z,38.01
2023-02-11T11:41:53.114Z,44.69
2023-02-11T11:42:54.919Z,37.23
2023-02-11T11:43:56.713Z,35.46
2023-02-11T11:44:58.554Z,34.54
2023-02-11T11:46:00.973Z,36.61
2023-02-11T11:47:02.826Z,33.41
2023-02-11T11:48:04.629Z,30.27
2023-02-11T11:49:06.453Z,28.46
2023-02-11T11:50:08.712Z,29.26
2023-02-11T11:51:11.097Z,31.15
2023-02-11T11:52:12.922Z,32.21
2023-02-11T11:53:14.741Z,30.37
2023-02-11T11:54:16.536Z,31.61
2023-02-11T11:55:18.388Z,35.84
2023-02-11T11:56:20.539Z,37.74
2023-02-11T11:57:22.340Z,33.74
2023-02-11T11:58:24.150Z,31.73
2023-02-11T11:59:25.971Z,32.72
2023-02-11T12:00:29.009Z,34.61
2023-02-11T12:01:30.848Z,34.56
2023-02-11T12:02:33.210Z,32.35
2023-02-11T12:03:35.038Z,32.67
2023-02-11T12:04:37.207Z,32.50
2023-02-11T12:05:39.080Z,31.21
2023-02-11T12:06:40.979Z,30.91
2023-02-11T12:07:42.789Z,32.67
2023-02-11T12:08:44.613Z,31.24
2023-02-11T12:09:46.407Z,31.31
2023-02-11T12:10:48.856Z,31.36
2023-02-11T12:11:50.774Z,35.90
2023-02-11T12:12:52.578Z,34.51
2023-02-11T12:13:54.392Z,33.37
2023-02-11T12:14:57.304Z,33.65
2023-02-11T12:15:59.187Z,32.36
2023-02-11T12:17:01.060Z,29.33
2023-02-11T12:18:03.221Z,34.13
2023-02-11T12:19:05.014Z,32.91
2023-02-11T12:20:07.036Z,31.22
2023-02-11T12:21:08.866Z,34.21
2023-02-11T12:22:10.668Z,29.63
2023-02-11T12:23:12.458Z,34.37
2023-02-11T12:24:17.192Z,30.34
2023-02-11T12:25:17.887Z,33.05
2023-02-11T12:26:20.524Z,32.11
2023-02-11T12:27:22.342Z,33.43
2023-02-11T12:28:24.160Z,33.85
2023-02-11T12:29:25.940Z,31.66
2023-02-11T12:30:27.777Z,34.80
2023-02-11T12:31:30.210Z,34.77
2023-02-11T12:32:32.026Z,32.25
2023-02-11T12:33:33.820Z,35.84
2023-02-11T12:34:35.611Z,36.19
2023-02-11T12:35:37.420Z,30.54
2023-02-11T12:36:39.268Z,32.14
2023-02-11T12:37:41.085Z,30.00
2023-02-11T12:38:42.882Z,32.22
2023-02-11T12:39:44.993Z,31.79
2023-02-11T12:40:46.900Z,32.87
2023-02-11T12:41:49.340Z,35.16
2023-02-11T12:42:51.140Z,32.25
2023-02-11T12:43:52.938Z,31.66
2023-02-11T12:44:54.737Z,32.90
2023-02-11T12:45:57.114Z,33.79
2023-02-11T12:46:59.037Z,34.07
2023-02-11T12:48:00.855Z,33.23
2023-02-11T12:49:02.681Z,34.51
2023-02-11T12:50:04.468Z,36.97
2023-02-11T12:51:06.273Z,39.26
2023-02-11T12:52:08.128Z,44.60
2023-02-11T12:53:09.958Z,41.45
2023-02-11T12:54:11.745Z,45.79
2023-02-11T12:55:13.551Z,50.37
2023-02-11T12:56:15.664Z,38.50
2023-02-11T12:57:17.530Z,36.35
2023-02-11T12:58:19.319Z,39.52
2023-02-11T12:59:21.141Z,37.28
2023-02-11T13:00:22.942Z,40.43
2023-02-11T13:01:25.371Z,36.15
2023-02-11T13:02:27.248Z,35.60
2023-02-11T13:03:29.102Z,36.57
2023-02-11T13:04:30.883Z,34.21
2023-02-11T13:05:32.694Z,34.02
2023-02-11T13:06:34.526Z,32.56
2023-02-11T13:07:36.402Z,34.61
2023-02-11T13:08:38.278Z,37.12
2023-02-11T13:09:40.147Z,45.59
2023-02-11T13:10:42.264Z,48.47
2023-02-11T13:11:44.069Z,40.56
2023-02-11T13:12:45.948Z,38.25
2023-02-11T13:13:47.748Z,39.53
2023-02-11T13:14:49.578Z,39.81
2023-02-11T13:15:51.400Z,44.10
2023-02-11T13:16:53.383Z,52.66